Maquam, Vermont
Current Conditions -  °F | °C
As of 6:35 AM on Tuesday 21 Oct 2014 (Local Time) from KFSO Reporting Station
Drizzle Drizzle  
Wind Chill: 43°   Ceiling: 5000
Heat Index: 43°   Visibility: 10mi
Dew Point: 40°   Wind: 0mph
Humidity: 89%   Direction: NA
Pressure: 29.94"   Gusts: NA
Location:  44.9002°N, 73.1493°W
Report Text: KFSO 211035Z AUTO 00000KT 10SM -DZ OVC050 06/05 A2994 RMK AO2 T00620045
Loading
Personal Weather Stations






























Interactive Weather Map
Tropical Storm Tracking
New forecast layout! Learn more

10-Day Weather Forecast

Advertisements
Track Severe Weather on mobile